sensor_id;sensor_type;location;lat;lon;timestamp;pressure;altitude;pressure_sealevel;temperature;humidity
47366;BME280;33105;47.964;7.982;2022-08-14T00:03:40;96221.91;;;18.98;43.82
47366;BME280;33105;47.964;7.982;2022-08-14T00:07:24;96217.56;;;18.80;44.10
47366;BME280;33105;47.964;7.982;2022-08-14T00:10:55;96212.50;;;18.48;45.06
47366;BME280;33105;47.964;7.982;2022-08-14T00:20:01;96212.34;;;18.61;45.29
47366;BME280;33105;47.964;7.982;2022-08-14T00:23:50;96218.69;;;18.62;45.63
47366;BME280;33105;47.964;7.982;2022-08-14T00:27:08;96213.16;;;18.53;44.82
47366;BME280;33105;47.964;7.982;2022-08-14T00:34:01;96219.31;;;18.42;45.71
47366;BME280;33105;47.964;7.982;2022-08-14T00:37:59;96212.97;;;18.41;45.70
47366;BME280;33105;47.964;7.982;2022-08-14T00:41:32;96210.53;;;18.40;45.72
47366;BME280;33105;47.964;7.982;2022-08-14T00:45:15;96209.72;;;18.39;45.95
47366;BME280;33105;47.964;7.982;2022-08-14T00:48:49;96206.16;;;18.30;46.26
47366;BME280;33105;47.964;7.982;2022-08-14T00:52:46;96208.75;;;18.26;46.19
47366;BME280;33105;47.964;7.982;2022-08-14T00:56:07;96211.66;;;18.21;45.92
47366;BME280;33105;47.964;7.982;2022-08-14T00:59:25;96216.84;;;18.14;46.37
47366;BME280;33105;47.964;7.982;2022-08-14T01:02:35;96216.88;;;18.06;47.17
47366;BME280;33105;47.964;7.982;2022-08-14T01:05:40;96212.44;;;17.96;47.22
47366;BME280;33105;47.964;7.982;2022-08-14T01:09:12;96198.94;;;17.94;47.40
47366;BME280;33105;47.964;7.982;2022-08-14T01:12:38;96206.09;;;17.87;47.03
47366;BME280;33105;47.964;7.982;2022-08-14T01:15:46;96203.00;;;17.80;47.26
47366;BME280;33105;47.964;7.982;2022-08-14T01:18:52;96195.16;;;17.82;47.03
47366;BME280;33105;47.964;7.982;2022-08-14T01:22:22;96195.16;;;17.82;46.98
47366;BME280;33105;47.964;7.982;2022-08-14T01:25:26;96182.19;;;17.74;47.20
47366;BME280;33105;47.964;7.982;2022-08-14T01:29:17;96179.41;;;17.74;47.26
47366;BME280;33105;47.964;7.982;2022-08-14T01:32:53;96169.63;;;17.67;47.36
47366;BME280;33105;47.964;7.982;2022-08-14T01:36:27;96160.06;;;17.74;46.94
47366;BME280;33105;47.964;7.982;2022-08-14T01:43:31;96149.59;;;17.53;47.53
47366;BME280;33105;47.964;7.982;2022-08-14T01:46:46;96140.47;;;17.44;47.91
47366;BME280;33105;47.964;7.982;2022-08-14T01:51:06;96135.22;;;17.25;48.55
47366;BME280;33105;47.964;7.982;2022-08-14T01:54:31;96125.66;;;17.31;47.98
47366;BME280;33105;47.964;7.982;2022-08-14T01:57:35;96120.97;;;17.32;48.25
47366;BME280;33105;47.964;7.982;2022-08-14T02:00:40;96125.13;;;17.21;47.79
47366;BME280;33105;47.964;7.982;2022-08-14T02:04:02;96111.78;;;17.14;48.85
47366;BME280;33105;47.964;7.982;2022-08-14T02:07:14;96111.78;;;17.06;49.37
47366;BME280;33105;47.964;7.982;2022-08-14T02:10:52;96115.75;;;16.91;49.72
47366;BME280;33105;47.964;7.982;2022-08-14T02:24:40;96090.53;;;16.75;49.70
47366;BME280;33105;47.964;7.982;2022-08-14T02:28:25;96084.03;;;16.71;49.60
47366;BME280;33105;47.964;7.982;2022-08-14T02:32:34;96086.19;;;16.52;49.85
47366;BME280;33105;47.964;7.982;2022-08-14T02:35:41;96078.44;;;16.62;50.56
47366;BME280;33105;47.964;7.982;2022-08-14T02:38:44;96075.16;;;16.60;50.31
47366;BME280;33105;47.964;7.982;2022-08-14T02:41:50;96072.81;;;16.67;50.26
47366;BME280;33105;47.964;7.982;2022-08-14T02:45:16;96072.25;;;16.57;50.30
47366;BME280;33105;47.964;7.982;2022-08-14T02:49:09;96063.56;;;16.41;51.29
47366;BME280;33105;47.964;7.982;2022-08-14T02:52:11;96052.59;;;16.50;50.66
47366;BME280;33105;47.964;7.982;2022-08-14T02:58:50;96042.25;;;16.24;51.73
47366;BME280;33105;47.964;7.982;2022-08-14T03:01:53;96032.88;;;16.34;51.22
47366;BME280;33105;47.964;7.982;2022-08-14T03:04:56;96018.47;;;16.37;50.78
47366;BME280;33105;47.964;7.982;2022-08-14T03:08:24;96021.50;;;16.27;52.19
47366;BME280;33105;47.964;7.982;2022-08-14T03:11:32;96024.69;;;16.20;51.19
47366;BME280;33105;47.964;7.982;2022-08-14T03:14:44;96015.84;;;15.79;52.14
47366;BME280;33105;47.964;7.982;2022-08-14T03:17:50;96014.50;;;16.21;52.06
47366;BME280;33105;47.964;7.982;2022-08-14T03:21:17;96016.34;;;16.03;51.89
47366;BME280;33105;47.964;7.982;2022-08-14T03:24:30;96013.69;;;16.20;51.85
47366;BME280;33105;47.964;7.982;2022-08-14T03:27:41;96013.69;;;16.20;52.35
47366;BME280;33105;47.964;7.982;2022-08-14T03:30:45;96022.13;;;16.24;52.61
47366;BME280;33105;47.964;7.982;2022-08-14T03:33:48;96022.25;;;16.19;52.42
47366;BME280;33105;47.964;7.982;2022-08-14T03:36:50;96025.59;;;16.07;52.11
47366;BME280;33105;47.964;7.982;2022-08-14T03:39:59;96020.22;;;16.02;52.08
47366;BME280;33105;47.964;7.982;2022-08-14T03:43:23;96023.28;;;16.01;52.63
47366;BME280;33105;47.964;7.982;2022-08-14T03:46:27;96026.47;;;15.94;53.01
47366;BME280;33105;47.964;7.982;2022-08-14T03:49:29;96018.97;;;15.86;52.45
47366;BME280;33105;47.964;7.982;2022-08-14T03:52:52;96017.72;;;15.92;52.16
47366;BME280;33105;47.964;7.982;2022-08-14T03:55:55;96010.03;;;16.11;51.59
47366;BME280;33105;47.964;7.982;2022-08-14T03:59:01;96005.47;;;16.29;50.99
47366;BME280;33105;47.964;7.982;2022-08-14T04:02:09;96001.94;;;15.84;52.09
47366;BME280;33105;47.964;7.982;2022-08-14T04:05:14;96011.97;;;16.02;51.72
47366;BME280;33105;47.964;7.982;2022-08-14T04:08:16;96009.91;;;16.16;51.24
47366;BME280;33105;47.964;7.982;2022-08-14T04:11:18;96009.19;;;16.02;52.16
47366;BME280;33105;47.964;7.982;2022-08-14T04:14:20;96016.03;;;16.05;52.22
47366;BME280;33105;47.964;7.982;2022-08-14T04:17:37;96035.44;;;15.99;52.81
47366;BME280;33105;47.964;7.982;2022-08-14T04:20:41;96038.31;;;15.94;52.75
47366;BME280;33105;47.964;7.982;2022-08-14T04:23:50;96036.25;;;15.78;53.32
47366;BME280;33105;47.964;7.982;2022-08-14T04:27:17;96047.00;;;15.88;52.84
47366;BME280;33105;47.964;7.982;2022-08-14T04:31:15;96029.84;;;15.91;52.50
47366;BME280;33105;47.964;7.982;2022-08-14T04:34:30;96025.03;;;16.50;51.33
47366;BME280;33105;47.964;7.982;2022-08-14T04:37:32;96029.47;;;16.28;51.64
47366;BME280;33105;47.964;7.982;2022-08-14T04:40:53;96025.59;;;16.38;52.72
47366;BME280;33105;47.964;7.982;2022-08-14T04:44:32;96025.75;;;16.33;52.97
47366;BME280;33105;47.964;7.982;2022-08-14T04:48:00;96024.44;;;16.30;53.13
47366;BME280;33105;47.964;7.982;2022-08-14T04:51:28;96026.19;;;16.26;53.30
47366;BME280;33105;47.964;7.982;2022-08-14T04:54:38;96030.22;;;16.20;54.63
47366;BME280;33105;47.964;7.982;2022-08-14T04:57:40;96025.44;;;16.12;54.73
47366;BME280;33105;47.964;7.982;2022-08-14T05:00:46;96029.09;;;15.99;54.84
47366;BME280;33105;47.964;7.982;2022-08-14T05:03:54;96045.63;;;15.99;54.92
47366;BME280;33105;47.964;7.982;2022-08-14T05:07:01;96042.75;;;16.04;54.61
47366;BME280;33105;47.964;7.982;2022-08-14T05:10:12;96041.84;;;16.17;55.43
47366;BME280;33105;47.964;7.982;2022-08-14T05:13:19;96047.00;;;16.10;54.39
47366;BME280;33105;47.964;7.982;2022-08-14T05:16:39;96038.06;;;16.05;53.80
47366;BME280;33105;47.964;7.982;2022-08-14T05:20:02;96033.91;;;16.16;54.20
47366;BME280;33105;47.964;7.982;2022-08-14T05:23:12;96039.03;;;16.09;55.67
47366;BME280;33105;47.964;7.982;2022-08-14T05:26:17;96033.84;;;16.29;54.45
47366;BME280;33105;47.964;7.982;2022-08-14T05:29:22;96020.91;;;16.39;54.11
47366;BME280;33105;47.964;7.982;2022-08-14T05:32:27;96016.38;;;16.43;54.24
47366;BME280;33105;47.964;7.982;2022-08-14T05:35:40;96005.09;;;16.53;54.92
47366;BME280;33105;47.964;7.982;2022-08-14T05:39:19;95993.69;;;16.46;54.06
47366;BME280;33105;47.964;7.982;2022-08-14T05:42:36;95976.28;;;16.28;55.90
47366;BME280;33105;47.964;7.982;2022-08-14T05:45:52;95969.66;;;16.86;54.24
47366;BME280;33105;47.964;7.982;2022-08-14T05:59:51;95943.06;;;18.02;50.69
47366;BME280;33105;47.964;7.982;2022-08-14T06:03:39;95922.88;;;18.48;50.80
47366;BME280;33105;47.964;7.982;2022-08-14T06:07:47;95914.41;;;18.83;51.28
47366;BME280;33105;47.964;7.982;2022-08-14T06:16:25;95906.88;;;19.33;47.95
47366;BME280;33105;47.964;7.982;2022-08-14T06:20:57;95907.81;;;19.58;50.55
47366;BME280;33105;47.964;7.982;2022-08-14T06:28:52;95905.16;;;20.40;47.85
47366;BME280;33105;47.964;7.982;2022-08-14T06:31:56;95922.19;;;20.51;44.32
47366;BME280;33105;47.964;7.982;2022-08-14T06:35:08;95914.31;;;20.53;42.82
47366;BME280;33105;47.964;7.982;2022-08-14T06:38:24;95907.44;;;21.11;42.54
47366;BME280;33105;47.964;7.982;2022-08-14T06:41:27;95916.50;;;21.20;44.52
47366;BME280;33105;47.964;7.982;2022-08-14T06:44:28;95916.31;;;21.41;41.01
47366;BME280;33105;47.964;7.982;2022-08-14T06:47:37;95914.75;;;21.84;42.47
47366;BME280;33105;47.964;7.982;2022-08-14T06:50:42;95907.63;;;22.26;40.60
47366;BME280;33105;47.964;7.982;2022-08-14T06:53:44;95909.59;;;22.26;41.08
47366;BME280;33105;47.964;7.982;2022-08-14T06:56:47;95904.78;;;22.11;40.83
47366;BME280;33105;47.964;7.982;2022-08-14T06:59:49;95899.53;;;22.21;41.41
47366;BME280;33105;47.964;7.982;2022-08-14T07:02:51;95909.13;;;22.39;41.08
47366;BME280;33105;47.964;7.982;2022-08-14T07:06:14;95918.00;;;22.29;39.78
47366;BME280;33105;47.964;7.982;2022-08-14T07:09:17;95915.97;;;22.89;37.99
47366;BME280;33105;47.964;7.982;2022-08-14T07:12:19;95916.75;;;23.05;37.14
47366;BME280;33105;47.964;7.982;2022-08-14T07:15:23;95911.09;;;23.37;38.21
47366;BME280;33105;47.964;7.982;2022-08-14T07:18:30;95912.09;;;23.64;36.75
47366;BME280;33105;47.964;7.982;2022-08-14T07:21:32;95908.72;;;23.74;36.27
47366;BME280;33105;47.964;7.982;2022-08-14T07:24:35;95917.88;;;23.94;35.28
47366;BME280;33105;47.964;7.982;2022-08-14T07:27:38;95923.88;;;24.15;36.88
47366;BME280;33105;47.964;7.982;2022-08-14T07:30:43;95922.69;;;24.16;35.29
47366;BME280;33105;47.964;7.982;2022-08-14T07:33:49;95908.56;;;24.48;35.47
47366;BME280;33105;47.964;7.982;2022-08-14T07:37:03;95913.94;;;24.60;34.85
47366;BME280;33105;47.964;7.982;2022-08-14T07:40:08;95917.03;;;24.77;33.06
47366;BME280;33105;47.964;7.982;2022-08-14T07:43:39;95923.13;;;24.83;32.96
47366;BME280;33105;47.964;7.982;2022-08-14T07:46:41;95923.66;;;24.92;32.78
47366;BME280;33105;47.964;7.982;2022-08-14T07:49:55;95924.34;;;25.35;32.21
47366;BME280;33105;47.964;7.982;2022-08-14T07:53:02;95938.56;;;25.79;32.81
47366;BME280;33105;47.964;7.982;2022-08-14T07:56:04;95951.72;;;25.22;32.26
47366;BME280;33105;47.964;7.982;2022-08-14T07:59:09;95941.59;;;25.40;32.56
47366;BME280;33105;47.964;7.982;2022-08-14T08:02:18;95930.78;;;25.65;32.93
47366;BME280;33105;47.964;7.982;2022-08-14T08:05:36;95908.16;;;26.11;30.55
47366;BME280;33105;47.964;7.982;2022-08-14T08:08:45;95895.97;;;25.93;30.57
47366;BME280;33105;47.964;7.982;2022-08-14T08:11:57;95891.28;;;26.37;29.46
47366;BME280;33105;47.964;7.982;2022-08-14T08:15:23;95904.69;;;26.21;28.53
47366;BME280;33105;47.964;7.982;2022-08-14T08:18:35;95906.88;;;26.38;28.47
47366;BME280;33105;47.964;7.982;2022-08-14T08:21:38;95900.72;;;26.63;28.51
47366;BME280;33105;47.964;7.982;2022-08-14T08:24:42;95890.44;;;26.81;29.65
47366;BME280;33105;47.964;7.982;2022-08-14T08:27:55;95894.91;;;26.41;30.61
47366;BME280;33105;47.964;7.982;2022-08-14T08:31:05;95896.31;;;26.62;29.95
47366;BME280;33105;47.964;7.982;2022-08-14T08:34:22;95901.91;;;26.62;29.49
47366;BME280;33105;47.964;7.982;2022-08-14T08:37:36;95911.28;;;26.84;29.51
47366;BME280;33105;47.964;7.982;2022-08-14T08:40:41;95915.69;;;26.81;30.12
47366;BME280;33105;47.964;7.982;2022-08-14T08:43:49;95919.59;;;26.69;31.59
47366;BME280;33105;47.964;7.982;2022-08-14T08:46:57;95919.06;;;26.97;29.72
47366;BME280;33105;47.964;7.982;2022-08-14T08:50:19;95915.03;;;26.95;29.83
47366;BME280;33105;47.964;7.982;2022-08-14T08:53:21;95910.75;;;26.67;29.59
47366;BME280;33105;47.964;7.982;2022-08-14T08:56:41;95910.72;;;26.64;29.66
47366;BME280;33105;47.964;7.982;2022-08-14T08:59:46;95908.28;;;26.59;29.85
47366;BME280;33105;47.964;7.982;2022-08-14T09:03:26;95905.00;;;26.53;31.76
47366;BME280;33105;47.964;7.982;2022-08-14T09:06:29;95902.72;;;26.62;29.59
47366;BME280;33105;47.964;7.982;2022-08-14T09:09:33;95899.88;;;26.59;30.60
47366;BME280;33105;47.964;7.982;2022-08-14T09:12:39;95894.16;;;26.92;30.10
47366;BME280;33105;47.964;7.982;2022-08-14T09:15:46;95896.06;;;26.81;30.30
47366;BME280;33105;47.964;7.982;2022-08-14T09:18:53;95885.94;;;27.14;28.82
47366;BME280;33105;47.964;7.982;2022-08-14T09:21:55;95888.28;;;27.08;28.59
47366;BME280;33105;47.964;7.982;2022-08-14T09:24:59;95876.09;;;27.48;27.86
47366;BME280;33105;47.964;7.982;2022-08-14T09:28:05;95887.81;;;26.95;25.78
47366;BME280;33105;47.964;7.982;2022-08-14T09:31:13;95877.56;;;27.24;25.97
47366;BME280;33105;47.964;7.982;2022-08-14T09:34:31;95875.31;;;27.51;26.79
47366;BME280;33105;47.964;7.982;2022-08-14T09:37:57;95868.13;;;27.57;29.49
47366;BME280;33105;47.964;7.982;2022-08-14T09:45:35;95867.47;;;27.82;26.86
47366;BME280;33105;47.964;7.982;2022-08-14T09:49:02;95868.75;;;28.02;26.88
47366;BME280;33105;47.964;7.982;2022-08-14T09:52:17;95858.72;;;28.04;26.49
47366;BME280;33105;47.964;7.982;2022-08-14T09:55:23;95855.03;;;27.79;26.20
47366;BME280;33105;47.964;7.982;2022-08-14T09:58:43;95858.97;;;27.60;26.68
47366;BME280;33105;47.964;7.982;2022-08-14T10:01:45;95866.75;;;28.06;26.00
47366;BME280;33105;47.964;7.982;2022-08-14T10:05:30;95845.06;;;27.89;25.48
47366;BME280;33105;47.964;7.982;2022-08-14T10:09:02;95853.16;;;28.19;27.75
47366;BME280;33105;47.964;7.982;2022-08-14T10:12:10;95855.56;;;28.17;28.10
47366;BME280;33105;47.964;7.982;2022-08-14T10:15:21;95863.53;;;28.04;27.03
47366;BME280;33105;47.964;7.982;2022-08-14T10:18:27;95864.22;;;27.76;25.47
47366;BME280;33105;47.964;7.982;2022-08-14T10:21:37;95870.78;;;28.12;25.04
47366;BME280;33105;47.964;7.982;2022-08-14T10:24:46;95866.41;;;28.25;26.25
47366;BME280;33105;47.964;7.982;2022-08-14T10:27:57;95866.44;;;28.47;25.37
47366;BME280;33105;47.964;7.982;2022-08-14T10:31:44;95864.84;;;28.49;25.99
47366;BME280;33105;47.964;7.982;2022-08-14T10:35:07;95866.88;;;28.41;24.32
47366;BME280;33105;47.964;7.982;2022-08-14T10:38:13;95860.50;;;28.91;24.64
47366;BME280;33105;47.964;7.982;2022-08-14T10:41:39;95863.69;;;28.96;23.72
47366;BME280;33105;47.964;7.982;2022-08-14T10:44:44;95855.66;;;28.98;24.82
47366;BME280;33105;47.964;7.982;2022-08-14T10:47:50;95860.50;;;28.94;25.80
47366;BME280;33105;47.964;7.982;2022-08-14T10:50:56;95857.66;;;28.98;24.56
47366;BME280;33105;47.964;7.982;2022-08-14T10:54:06;95858.44;;;29.16;24.08
47366;BME280;33105;47.964;7.982;2022-08-14T10:57:16;95857.25;;;29.14;24.44
47366;BME280;33105;47.964;7.982;2022-08-14T11:00:26;95858.06;;;28.96;24.90
47366;BME280;33105;47.964;7.982;2022-08-14T11:03:40;95860.09;;;28.89;24.53
47366;BME280;33105;47.964;7.982;2022-08-14T11:06:51;95853.22;;;28.75;25.20
47366;BME280;33105;47.964;7.982;2022-08-14T11:09:59;95858.06;;;28.82;25.40
47366;BME280;33105;47.964;7.982;2022-08-14T11:13:06;95858.03;;;28.57;25.98
47366;BME280;33105;47.964;7.982;2022-08-14T11:16:11;95855.66;;;28.63;25.74
47366;BME280;33105;47.964;7.982;2022-08-14T11:19:13;95860.47;;;28.62;26.74
47366;BME280;33105;47.964;7.982;2022-08-14T11:22:17;95862.44;;;29.26;25.04
47366;BME280;33105;47.964;7.982;2022-08-14T11:25:23;95853.53;;;29.56;25.14
47366;BME280;33105;47.964;7.982;2022-08-14T11:28:32;95847.56;;;29.43;25.17
47366;BME280;33105;47.964;7.982;2022-08-14T11:31:35;95851.94;;;29.55;25.82
47366;BME280;33105;47.964;7.982;2022-08-14T11:34:41;95872.50;;;29.13;32.21
47366;BME280;33105;47.964;7.982;2022-08-14T11:37:56;95865.28;;;28.62;36.02
47366;BME280;33105;47.964;7.982;2022-08-14T11:41:00;95860.03;;;28.50;35.97
47366;BME280;33105;47.964;7.982;2022-08-14T11:44:05;95878.09;;;28.41;36.24
47366;BME280;33105;47.964;7.982;2022-08-14T11:47:11;95861.28;;;28.84;36.13
47366;BME280;33105;47.964;7.982;2022-08-14T11:50:22;95857.28;;;28.82;36.26
47366;BME280;33105;47.964;7.982;2022-08-14T11:53:31;95855.16;;;29.50;34.38
47366;BME280;33105;47.964;7.982;2022-08-14T11:56:35;95858.00;;;29.46;33.59
47366;BME280;33105;47.964;7.982;2022-08-14T11:59:40;95853.06;;;29.71;34.17
47366;BME280;33105;47.964;7.982;2022-08-14T12:02:51;95855.47;;;29.76;34.47
47366;BME280;33105;47.964;7.982;2022-08-14T12:06:12;95845.00;;;29.77;33.83
47366;BME280;33105;47.964;7.982;2022-08-14T12:09:32;95847.53;;;29.54;35.05
47366;BME280;33105;47.964;7.982;2022-08-14T12:12:37;95842.75;;;29.43;34.87
47366;BME280;33105;47.964;7.982;2022-08-14T12:15:40;95843.59;;;29.01;35.86
47366;BME280;33105;47.964;7.982;2022-08-14T12:18:47;95838.81;;;28.91;35.87
47366;BME280;33105;47.964;7.982;2022-08-14T12:21:54;95829.53;;;29.12;35.14
47366;BME280;33105;47.964;7.982;2022-08-14T12:25:00;95836.31;;;29.22;35.20
47366;BME280;33105;47.964;7.982;2022-08-14T12:28:10;95829.06;;;29.28;35.24
47366;BME280;33105;47.964;7.982;2022-08-14T12:31:16;95843.63;;;28.94;36.47
47366;BME280;33105;47.964;7.982;2022-08-14T12:34:32;95840.38;;;28.53;37.39
47366;BME280;33105;47.964;7.982;2022-08-14T12:37:37;95837.19;;;28.69;37.10
47366;BME280;33105;47.964;7.982;2022-08-14T12:40:51;95846.78;;;28.54;37.11
47366;BME280;33105;47.964;7.982;2022-08-14T12:44:05;95841.97;;;28.75;37.67
47366;BME280;33105;47.964;7.982;2022-08-14T12:47:11;95835.97;;;28.66;38.14
47366;BME280;33105;47.964;7.982;2022-08-14T12:50:18;95847.63;;;28.68;38.19
47366;BME280;33105;47.964;7.982;2022-08-14T12:53:34;95845.16;;;28.28;38.51
47366;BME280;33105;47.964;7.982;2022-08-14T12:56:38;95837.94;;;28.34;38.68
47366;BME280;33105;47.964;7.982;2022-08-14T13:00:03;95840.00;;;28.83;39.25
47366;BME280;33105;47.964;7.982;2022-08-14T13:03:09;95837.88;;;29.55;36.82
47366;BME280;33105;47.964;7.982;2022-08-14T13:06:20;95834.66;;;29.45;35.94
47366;BME280;33105;47.964;7.982;2022-08-14T13:09:30;95826.34;;;28.92;37.22
47366;BME280;33105;47.964;7.982;2022-08-14T13:12:37;95824.66;;;29.27;36.37
47366;BME280;33105;47.964;7.982;2022-08-14T13:15:45;95812.69;;;28.94;36.54
47366;BME280;33105;47.964;7.982;2022-08-14T13:18:51;95802.22;;;28.98;35.96
47366;BME280;33105;47.964;7.982;2022-08-14T13:21:59;95811.44;;;29.13;35.84
47366;BME280;33105;47.964;7.982;2022-08-14T13:25:03;95812.28;;;28.39;36.99
47366;BME280;33105;47.964;7.982;2022-08-14T13:28:06;95805.84;;;28.38;37.21
47366;BME280;33105;47.964;7.982;2022-08-14T13:31:12;95801.41;;;28.73;35.47
47366;BME280;33105;47.964;7.982;2022-08-14T13:34:15;95803.44;;;28.58;35.81
47366;BME280;33105;47.964;7.982;2022-08-14T13:37:18;95798.59;;;28.80;34.51
47366;BME280;33105;47.964;7.982;2022-08-14T13:40:23;95808.66;;;28.56;34.18
47366;BME280;33105;47.964;7.982;2022-08-14T13:43:26;95803.84;;;28.53;32.39
47366;BME280;33105;47.964;7.982;2022-08-14T13:46:35;95805.78;;;28.10;34.26
47366;BME280;33105;47.964;7.982;2022-08-14T13:49:37;95793.00;;;28.41;33.38
47366;BME280;33105;47.964;7.982;2022-08-14T13:52:58;95803.44;;;28.58;31.67
47366;BME280;33105;47.964;7.982;2022-08-14T13:56:04;95793.81;;;28.34;33.26
47366;BME280;33105;47.964;7.982;2022-08-14T13:59:13;95782.50;;;27.95;33.66
47366;BME280;33105;47.964;7.982;2022-08-14T14:02:18;95782.13;;;28.15;33.51
47366;BME280;33105;47.964;7.982;2022-08-14T14:05:23;95788.56;;;28.15;33.32
47366;BME280;33105;47.964;7.982;2022-08-14T14:08:25;95781.75;;;28.20;33.10
47366;BME280;33105;47.964;7.982;2022-08-14T14:11:28;95789.38;;;28.23;32.92
47366;BME280;33105;47.964;7.982;2022-08-14T14:14:30;95783.31;;;27.96;34.09
47366;BME280;33105;47.964;7.982;2022-08-14T14:17:34;95780.91;;;28.12;32.88
47366;BME280;33105;47.964;7.982;2022-08-14T14:20:43;95771.28;;;27.92;35.20
47366;BME280;33105;47.964;7.982;2022-08-14T14:23:54;95770.47;;;27.95;33.48
47366;BME280;33105;47.964;7.982;2022-08-14T14:27:01;95769.06;;;27.39;35.18
47366;BME280;33105;47.964;7.982;2022-08-14T14:30:16;95767.75;;;27.12;34.05
47366;BME280;33105;47.964;7.982;2022-08-14T14:33:24;95767.97;;;27.61;34.30
47366;BME280;33105;47.964;7.982;2022-08-14T14:36:28;95769.66;;;27.87;36.28
47366;BME280;33105;47.964;7.982;2022-08-14T14:39:32;95773.66;;;28.00;33.19
47366;BME280;33105;47.964;7.982;2022-08-14T14:42:50;95768.91;;;28.22;33.71
47366;BME280;33105;47.964;7.982;2022-08-14T14:45:54;95765.31;;;28.29;31.23
47366;BME280;33105;47.964;7.982;2022-08-14T14:48:56;95763.69;;;28.17;32.20
47366;BME280;33105;47.964;7.982;2022-08-14T14:52:40;95762.47;;;28.11;31.51
47366;BME280;33105;47.964;7.982;2022-08-14T14:56:14;95772.06;;;28.03;31.84
47366;BME280;33105;47.964;7.982;2022-08-14T14:59:37;95772.91;;;28.14;31.22
47366;BME280;33105;47.964;7.982;2022-08-14T15:02:51;95773.66;;;27.83;34.13
47366;BME280;33105;47.964;7.982;2022-08-14T15:05:55;95756.78;;;27.79;33.97
47366;BME280;33105;47.964;7.982;2022-08-14T15:09:02;95757.09;;;27.53;31.34
47366;BME280;33105;47.964;7.982;2022-08-14T15:12:12;95754.41;;;27.85;30.82
47366;BME280;33105;47.964;7.982;2022-08-14T15:15:16;95750.38;;;27.71;30.08
47366;BME280;33105;47.964;7.982;2022-08-14T15:18:19;95750.00;;;28.01;30.42
47366;BME280;33105;47.964;7.982;2022-08-14T15:21:21;95745.59;;;27.97;29.95
47366;BME280;33105;47.964;7.982;2022-08-14T15:24:25;95744.81;;;28.10;29.11
47366;BME280;33105;47.964;7.982;2022-08-14T15:27:28;95746.75;;;27.74;29.41
47366;BME280;33105;47.964;7.982;2022-08-14T15:30:41;95740.72;;;27.72;28.79
47366;BME280;33105;47.964;7.982;2022-08-14T15:33:47;95752.00;;;28.01;27.15
47366;BME280;33105;47.964;7.982;2022-08-14T15:37:09;95755.22;;;27.89;27.08
47366;BME280;33105;47.964;7.982;2022-08-14T15:40:17;95767.19;;;27.64;27.62
47366;BME280;33105;47.964;7.982;2022-08-14T15:43:33;95764.28;;;27.50;26.65
47366;BME280;33105;47.964;7.982;2022-08-14T15:46:50;95774.53;;;27.07;28.75
47366;BME280;33105;47.964;7.982;2022-08-14T15:50:06;95774.19;;;27.16;27.95
47366;BME280;33105;47.964;7.982;2022-08-14T15:53:20;95771.03;;;27.28;28.25
47366;BME280;33105;47.964;7.982;2022-08-14T15:56:37;95766.16;;;27.14;28.05
47366;BME280;33105;47.964;7.982;2022-08-14T15:59:48;95771.69;;;26.96;29.32
47366;BME280;33105;47.964;7.982;2022-08-14T16:03:23;95788.06;;;26.94;29.15
47366;BME280;33105;47.964;7.982;2022-08-14T16:06:28;95787.19;;;26.83;30.82
47366;BME280;33105;47.964;7.982;2022-08-14T16:09:30;95798.69;;;26.67;30.30
47366;BME280;33105;47.964;7.982;2022-08-14T16:12:32;95786.16;;;26.54;30.55
47366;BME280;33105;47.964;7.982;2022-08-14T16:15:34;95797.91;;;26.26;31.31
47366;BME280;33105;47.964;7.982;2022-08-14T16:18:44;95795.00;;;26.12;31.54
47366;BME280;33105;47.964;7.982;2022-08-14T16:21:48;95799.44;;;26.17;32.14
47366;BME280;33105;47.964;7.982;2022-08-14T16:24:51;95798.69;;;25.83;33.20
47366;BME280;33105;47.964;7.982;2022-08-14T16:27:57;95802.13;;;26.06;32.31
47366;BME280;33105;47.964;7.982;2022-08-14T16:31:03;95802.00;;;25.92;32.32
47366;BME280;33105;47.964;7.982;2022-08-14T16:34:29;95803.94;;;25.88;32.66
47366;BME280;33105;47.964;7.982;2022-08-14T16:37:39;95795.44;;;25.77;33.13
47366;BME280;33105;47.964;7.982;2022-08-14T16:40:47;95795.00;;;25.41;33.32
47366;BME280;33105;47.964;7.982;2022-08-14T16:44:42;95786.09;;;25.32;34.23
47366;BME280;33105;47.964;7.982;2022-08-14T16:47:47;95788.72;;;25.52;34.21
47366;BME280;33105;47.964;7.982;2022-08-14T16:50:49;95775.47;;;25.12;34.05
47366;BME280;33105;47.964;7.982;2022-08-14T16:53:51;95771.66;;;25.27;34.62
47366;BME280;33105;47.964;7.982;2022-08-14T16:57:20;95776.47;;;25.30;35.56
47366;BME280;33105;47.964;7.982;2022-08-14T17:00:49;95775.69;;;25.29;34.69
47366;BME280;33105;47.964;7.982;2022-08-14T17:03:58;95769.19;;;24.92;35.92
47366;BME280;33105;47.964;7.982;2022-08-14T17:08:11;95766.56;;;25.02;36.38
47366;BME280;33105;47.964;7.982;2022-08-14T17:11:14;95777.44;;;25.41;36.10
47366;BME280;33105;47.964;7.982;2022-08-14T17:18:41;95771.38;;;25.35;35.17
47366;BME280;33105;47.964;7.982;2022-08-14T17:22:53;95763.84;;;25.09;35.85
47366;BME280;33105;47.964;7.982;2022-08-14T17:26:46;95769.94;;;25.15;36.25
47366;BME280;33105;47.964;7.982;2022-08-14T17:30:02;95776.06;;;25.28;35.25
47366;BME280;33105;47.964;7.982;2022-08-14T17:33:24;95780.19;;;24.81;36.20
47366;BME280;33105;47.964;7.982;2022-08-14T17:36:35;95771.72;;;25.00;36.20
47366;BME280;33105;47.964;7.982;2022-08-14T17:43:14;95771.50;;;25.13;36.33
47366;BME280;33105;47.964;7.982;2022-08-14T17:46:37;95780.88;;;24.97;37.47
47366;BME280;33105;47.964;7.982;2022-08-14T17:49:47;95775.69;;;24.99;38.06
47366;BME280;33105;47.964;7.982;2022-08-14T17:52:58;95774.09;;;24.98;37.66
47366;BME280;33105;47.964;7.982;2022-08-14T17:56:06;95783.09;;;24.88;37.97
47366;BME280;33105;47.964;7.982;2022-08-14T17:59:46;95777.72;;;24.76;38.80
47366;BME280;33105;47.964;7.982;2022-08-14T18:02:52;95778.06;;;24.71;38.94
47366;BME280;33105;47.964;7.982;2022-08-14T18:05:56;95783.13;;;24.62;39.09
47366;BME280;33105;47.964;7.982;2022-08-14T18:08:59;95780.66;;;24.57;39.75